Terminal Aerodrome Forecast
Issued by NWS Central Illinois

Home | Current Version | Previous Version | Text Only | Print | Product List | Glossary On
Versions: 1 2 3 4 5 6 7 8 9 10 11 12
000
FTUS43 KILX 250527
TAFSPI
TAF
KSPI 250527Z 2506/2606 18008KT P6SM BKN250
     FM251500 18010G18KT P6SM VCTS SCT050CB BKN250
     FM260200 18007KT P6SM SCT050 BKN120=

USA.gov is the U.S. government's official web portal to all federal, state and local government web resources and services.